This is the latest recevied weather packets stored in our database for station/object 7L2IWN-13. If no packets are shown the sender has not sent any weather packets the latest 1 day(s).
| Time | Temp. | Humidity | Pressure | Rain* | Wind** | Luminosity | Snow |
|---|---|---|---|---|---|---|---|
| 1778073365 | 13.89° C | 91% | 1017 hPa | 0 mm | - | - | - |
| 1778071204 | 14.44° C | 90% | 1017.3 hPa | 0 mm | - | - | - |
| 1778068325 | 14.44° C | 90% | 1017.2 hPa | 0 mm | - | - | - |
| 1778066166 | 15° C | 89% | 1017 hPa | 0 mm | - | - | - |
| 1778064725 | 15° C | 89% | 1017.1 hPa | 0 mm | - | - | - |
| 1778063286 | 15.56° C | 86% | 1017.3 hPa | 0 mm | - | - | - |
| 1778062566 | 15.56° C | 86% | 1017.4 hPa | 0 mm | - | - | - |
| 1778059686 | 16.67° C | 82% | 1016.6 hPa | 0 mm | - | - | - |
| 1778056805 | 18.33° C | 76% | 1016.8 hPa | 0 mm | - | - | - |
| 1778056085 | 18.33° C | 77% | 1016.4 hPa | 0 mm | - | - | - |
| 1778054645 | 18.33° C | 74% | 1017.1 hPa | 0 mm | - | - | - |
| 1778051046 | 18.89° C | 69% | 1016.9 hPa | 0 mm | - | - | - |
| 1778050325 | 19.44° C | 69% | 1017 hPa | 0 mm | - | - | - |
| 1778048165 | 19.44° C | 67% | 1017.4 hPa | 0 mm | - | - | - |
| 1778046725 | 18.89° C | 68% | 1017.5 hPa | 0 mm | - | - | - |
| 1778046005 | 18.33° C | 68% | 1017.2 hPa | 0 mm | - | - | - |
| 1778045286 | 18.89° C | 68% | 1017.6 hPa | 0 mm | - | - | - |
| 1778043944 | 18.89° C | 67% | 1017.7 hPa | 0 mm | - | - | - |
| 1778043225 | 18.33° C | 67% | 1017.7 hPa | 0 mm | - | - | - |
| 1778042505 | 18.89° C | 66% | 1018 hPa | 0 mm | - | - | - |
| 1778041786 | 18.89° C | 65% | 1018 hPa | 0 mm | - | - | - |
| 1778041067 | 18.89° C | 65% | 1018.5 hPa | 0 mm | - | - | - |
| 1778040345 | 18.89° C | 64% | 1018.3 hPa | 0 mm | - | - | - |
| 1778039626 | 18.89° C | 64% | 1018.6 hPa | 0 mm | - | - | - |
| 1778038905 | 20° C | 62% | 1018.8 hPa | 0 mm | - | - | - |
* Rain latest hour (hover to see other rain measurements)
** Current wind speed in m/s (hover to see current wind gust speed)